RYR88DM EGSS-LFBL
Flight info
| Callsign | RYR88DM |
|---|---|
| Flight time | 1h 19m |
| Altitude | 26000 |
| Route | NUGBO M183 SILVA Q41 COWLY T71 VAPID N859 DRAKE L151 SITET UN859 VANAD A34 AMB R10 BALAN |
| Aircraft | B38M/M-SADE3FGILRWYSB1/LB1 |
Departure
| Time | 2026-04-26 17:36 |
|---|---|
| Airport | London Stansted Airport (EGSS) |
Arrival
| Time | 2026-04-26 18:56 |
|---|---|
| Airport | Limoges Airport (LFBL) |
| Time | Latitude | Longitude | Altitude | Speed | Heading |
|---|---|---|---|---|---|
| 2026-04-26 17:15 | 51.89217 | 0.25658 | 357 ft | 0 kts | 222° |
| 2026-04-26 17:26 | 51.89231 | 0.25678 | 364 ft | 4 kts | 222° |
| 2026-04-26 17:26 | 51.89246 | 0.25701 | 362 ft | 4 kts | 237° |
| 2026-04-26 17:27 | 51.89247 | 0.25731 | 363 ft | 4 kts | 310° |
| 2026-04-26 17:27 | 51.89231 | 0.25759 | 364 ft | 2 kts | 313° |
| 2026-04-26 17:27 | 51.89230 | 0.25760 | 364 ft | 0 kts | 315° |
| 2026-04-26 17:30 | 51.89237 | 0.25753 | 364 ft | 4 kts | 323° |
| 2026-04-26 17:30 | 51.89282 | 0.25672 | 360 ft | 15 kts | 313° |
| 2026-04-26 17:30 | 51.89336 | 0.25541 | 356 ft | 13 kts | 261° |
| 2026-04-26 17:30 | 51.89275 | 0.25427 | 359 ft | 15 kts | 222° |
| 2026-04-26 17:31 | 51.89193 | 0.25305 | 362 ft | 17 kts | 223° |
| 2026-04-26 17:31 | 51.89099 | 0.25163 | 358 ft | 20 kts | 223° |
| 2026-04-26 17:31 | 51.88993 | 0.25005 | 357 ft | 22 kts | 222° |
| 2026-04-26 17:31 | 51.88876 | 0.24827 | 358 ft | 24 kts | 224° |
| 2026-04-26 17:32 | 51.88748 | 0.24641 | 353 ft | 25 kts | 223° |
| 2026-04-26 17:32 | 51.88616 | 0.24438 | 354 ft | 24 kts | 223° |
| 2026-04-26 17:32 | 51.88486 | 0.24243 | 347 ft | 26 kts | 224° |
| 2026-04-26 17:32 | 51.88346 | 0.24032 | 350 ft | 28 kts | 222° |
| 2026-04-26 17:33 | 51.88205 | 0.23824 | 347 ft | 21 kts | 223° |
| 2026-04-26 17:33 | 51.88085 | 0.23643 | 348 ft | 25 kts | 223° |
| 2026-04-26 17:33 | 51.87952 | 0.23443 | 349 ft | 27 kts | 223° |
| 2026-04-26 17:34 | 51.87925 | 0.23123 | 338 ft | 13 kts | 263° |
| 2026-04-26 17:34 | 51.87863 | 0.23012 | 341 ft | 15 kts | 223° |
| 2026-04-26 17:34 | 51.87788 | 0.22895 | 342 ft | 16 kts | 223° |
| 2026-04-26 17:34 | 51.87698 | 0.22762 | 338 ft | 19 kts | 222° |
| 2026-04-26 17:35 | 51.87591 | 0.22603 | 335 ft | 23 kts | 223° |
| 2026-04-26 17:35 | 51.87521 | 0.22425 | 329 ft | 14 kts | 296° |
| 2026-04-26 17:35 | 51.87598 | 0.22298 | 325 ft | 19 kts | 321° |
| 2026-04-26 17:35 | 51.87709 | 0.22293 | 327 ft | 16 kts | 42° |
| 2026-04-26 17:36 | 51.87870 | 0.22540 | 333 ft | 67 kts | 44° |
| 2026-04-26 17:36 | 51.88398 | 0.23331 | 348 ft | 137 kts | 43° |
| 2026-04-26 17:36 | 51.89215 | 0.24563 | 552 ft | 176 kts | 41° |
| 2026-04-26 17:36 | 51.90157 | 0.25909 | 1355 ft | 178 kts | 44° |
| 2026-04-26 17:37 | 51.91033 | 0.27243 | 2328 ft | 178 kts | 44° |
| 2026-04-26 17:37 | 51.91992 | 0.28664 | 2820 ft | 200 kts | 36° |
| 2026-04-26 17:37 | 51.93368 | 0.29524 | 3264 ft | 225 kts | 7° |
| 2026-04-26 17:38 | 51.96336 | 0.27352 | 4518 ft | 261 kts | 305° |
| 2026-04-26 17:38 | 51.97007 | 0.24602 | 4860 ft | 267 kts | 279° |
| 2026-04-26 17:38 | 51.97298 | 0.21612 | 4966 ft | 269 kts | 279° |
| 2026-04-26 17:38 | 51.97619 | 0.18626 | 5355 ft | 274 kts | 279° |
| 2026-04-26 17:39 | 51.97952 | 0.15577 | 6424 ft | 271 kts | 279° |
| 2026-04-26 17:39 | 51.98282 | 0.12548 | 7296 ft | 274 kts | 279° |
| 2026-04-26 17:39 | 51.98614 | 0.09503 | 8213 ft | 274 kts | 279° |
| 2026-04-26 17:39 | 51.98873 | 0.06436 | 9131 ft | 276 kts | 268° |
| 2026-04-26 17:40 | 51.98553 | 0.03371 | 10091 ft | 277 kts | 258° |
| 2026-04-26 17:40 | 51.98430 | 0.02375 | 10334 ft | 280 kts | 259° |
| 2026-04-26 17:40 | 51.97767 | -0.03052 | 11172 ft | 306 kts | 258° |
| 2026-04-26 17:40 | 51.97338 | -0.06445 | 11790 ft | 314 kts | 257° |
| 2026-04-26 17:41 | 51.96893 | -0.09912 | 12638 ft | 316 kts | 257° |
| 2026-04-26 17:41 | 51.96440 | -0.13422 | 13397 ft | 320 kts | 257° |
| 2026-04-26 17:41 | 51.95978 | -0.16969 | 14152 ft | 323 kts | 257° |
| 2026-04-26 17:41 | 51.95513 | -0.20546 | 14823 ft | 326 kts | 257° |
| 2026-04-26 17:42 | 51.95041 | -0.24158 | 15479 ft | 329 kts | 257° |
| 2026-04-26 17:42 | 51.94720 | -0.26607 | 15956 ft | 332 kts | 257° |
| 2026-04-26 17:42 | 51.94235 | -0.30296 | 16229 ft | 334 kts | 257° |
| 2026-04-26 17:42 | 51.93750 | -0.33969 | 16291 ft | 333 kts | 257° |
| 2026-04-26 17:43 | 51.93264 | -0.37651 | 16323 ft | 335 kts | 257° |
| 2026-04-26 17:43 | 51.92774 | -0.41349 | 17022 ft | 335 kts | 258° |
| 2026-04-26 17:43 | 51.92283 | -0.45049 | 17836 ft | 338 kts | 258° |
| 2026-04-26 17:43 | 51.91785 | -0.48787 | 18548 ft | 342 kts | 258° |
| 2026-04-26 17:44 | 51.91279 | -0.52572 | 19191 ft | 345 kts | 258° |
| 2026-04-26 17:44 | 51.90769 | -0.56380 | 19812 ft | 348 kts | 258° |
| 2026-04-26 17:44 | 51.90259 | -0.60176 | 20418 ft | 351 kts | 258° |
| 2026-04-26 17:44 | 51.89731 | -0.64102 | 21029 ft | 354 kts | 258° |
| 2026-04-26 17:45 | 51.89203 | -0.68010 | 21640 ft | 357 kts | 258° |
| 2026-04-26 17:45 | 51.88677 | -0.71901 | 22234 ft | 360 kts | 258° |
| 2026-04-26 17:45 | 51.88138 | -0.75875 | 22836 ft | 363 kts | 258° |
| 2026-04-26 17:45 | 51.87593 | -0.79881 | 23434 ft | 366 kts | 257° |
| 2026-04-26 17:46 | 51.87041 | -0.83926 | 23994 ft | 370 kts | 257° |
| 2026-04-26 17:46 | 51.86485 | -0.87993 | 24500 ft | 372 kts | 257° |
| 2026-04-26 17:46 | 51.85903 | -0.92092 | 25023 ft | 374 kts | 253° |
| 2026-04-26 17:46 | 51.84802 | -0.95866 | 25663 ft | 373 kts | 236° |
| 2026-04-26 17:47 | 51.83001 | -0.98878 | 26326 ft | 374 kts | 218° |
| 2026-04-26 17:47 | 51.81530 | -1.00316 | 26760 ft | 376 kts | 207° |
| 2026-04-26 17:47 | 51.78143 | -1.01941 | 27205 ft | 384 kts | 194° |
| 2026-04-26 17:47 | 51.75530 | -1.02759 | 27246 ft | 382 kts | 194° |
| 2026-04-26 17:48 | 51.72917 | -1.03509 | 27257 ft | 382 kts | 193° |
| 2026-04-26 17:48 | 51.70296 | -1.04226 | 27263 ft | 382 kts | 193° |
| 2026-04-26 17:48 | 51.67680 | -1.04919 | 27260 ft | 382 kts | 192° |
| 2026-04-26 17:48 | 51.65056 | -1.05601 | 27262 ft | 382 kts | 192° |
| 2026-04-26 17:49 | 51.62437 | -1.06272 | 27265 ft | 382 kts | 191° |
| 2026-04-26 17:49 | 51.59770 | -1.06410 | 27268 ft | 386 kts | 180° |
| 2026-04-26 17:49 | 51.57089 | -1.06221 | 27256 ft | 386 kts | 181° |
| 2026-04-26 17:49 | 51.54406 | -1.06087 | 27261 ft | 386 kts | 181° |
| 2026-04-26 17:50 | 51.51718 | -1.05944 | 27258 ft | 386 kts | 181° |
| 2026-04-26 17:50 | 51.49028 | -1.05798 | 27261 ft | 387 kts | 181° |
| 2026-04-26 17:50 | 51.46338 | -1.05651 | 27262 ft | 386 kts | 181° |
| 2026-04-26 17:50 | 51.43653 | -1.05505 | 27268 ft | 387 kts | 181° |
| 2026-04-26 17:51 | 51.40964 | -1.05358 | 27267 ft | 387 kts | 181° |
| 2026-04-26 17:51 | 51.38279 | -1.05211 | 27263 ft | 387 kts | 181° |
| 2026-04-26 17:51 | 51.35591 | -1.05065 | 27266 ft | 387 kts | 181° |
| 2026-04-26 17:51 | 51.32898 | -1.04918 | 27261 ft | 387 kts | 181° |
| 2026-04-26 17:52 | 51.30207 | -1.04771 | 27250 ft | 387 kts | 181° |
| 2026-04-26 17:52 | 51.27516 | -1.04624 | 27267 ft | 387 kts | 181° |
| 2026-04-26 17:52 | 51.24855 | -1.03909 | 27244 ft | 392 kts | 163° |
| 2026-04-26 17:52 | 51.22341 | -1.02142 | 27270 ft | 396 kts | 159° |
| 2026-04-26 17:53 | 51.19822 | -1.00375 | 27259 ft | 396 kts | 159° |
| 2026-04-26 17:53 | 51.17307 | -0.98587 | 27273 ft | 397 kts | 159° |
| 2026-04-26 17:53 | 51.14791 | -0.96778 | 27254 ft | 397 kts | 159° |
| 2026-04-26 17:54 | 51.09769 | -0.93144 | 27258 ft | 396 kts | 158° |
| 2026-04-26 17:54 | 51.07256 | -0.91324 | 27256 ft | 396 kts | 158° |
| 2026-04-26 17:54 | 51.04747 | -0.89510 | 27259 ft | 396 kts | 158° |
| 2026-04-26 17:54 | 51.02236 | -0.87695 | 27272 ft | 396 kts | 158° |
| 2026-04-26 17:55 | 50.99724 | -0.85882 | 27264 ft | 396 kts | 158° |
| 2026-04-26 17:55 | 50.97215 | -0.84073 | 27261 ft | 396 kts | 158° |
| 2026-04-26 17:55 | 50.94706 | -0.82267 | 27266 ft | 396 kts | 158° |
| 2026-04-26 17:55 | 50.92196 | -0.80461 | 27262 ft | 396 kts | 158° |
| 2026-04-26 17:56 | 50.89688 | -0.78660 | 27267 ft | 396 kts | 158° |
| 2026-04-26 17:56 | 50.84750 | -0.74885 | 27264 ft | 399 kts | 149° |
| 2026-04-26 17:57 | 50.80156 | -0.69920 | 27270 ft | 400 kts | 148° |
| 2026-04-26 17:57 | 50.77813 | -0.67424 | 27271 ft | 400 kts | 148° |
| 2026-04-26 17:57 | 50.75509 | -0.64968 | 27265 ft | 400 kts | 148° |
| 2026-04-26 17:57 | 50.73228 | -0.62538 | 27267 ft | 400 kts | 148° |
| 2026-04-26 17:58 | 50.66267 | -0.55135 | 27267 ft | 400 kts | 148° |
| 2026-04-26 17:59 | 50.61641 | -0.50231 | 27268 ft | 401 kts | 148° |
| 2026-04-26 17:59 | 50.59327 | -0.47783 | 27268 ft | 401 kts | 148° |
| 2026-04-26 17:59 | 50.57044 | -0.45372 | 27268 ft | 401 kts | 148° |
| 2026-04-26 17:59 | 50.54728 | -0.42928 | 27268 ft | 401 kts | 148° |
| 2026-04-26 18:00 | 50.52411 | -0.40486 | 27269 ft | 401 kts | 149° |
| 2026-04-26 18:00 | 50.50095 | -0.38048 | 27267 ft | 401 kts | 149° |
| 2026-04-26 18:00 | 50.47778 | -0.35611 | 27268 ft | 401 kts | 149° |
| 2026-04-26 18:00 | 50.45460 | -0.33177 | 27268 ft | 401 kts | 149° |
| 2026-04-26 18:01 | 50.43142 | -0.30746 | 27268 ft | 401 kts | 149° |
| 2026-04-26 18:01 | 50.40827 | -0.28320 | 27255 ft | 401 kts | 149° |
| 2026-04-26 18:01 | 50.38506 | -0.25892 | 27262 ft | 401 kts | 149° |
| 2026-04-26 18:01 | 50.36190 | -0.23471 | 27265 ft | 400 kts | 149° |
| 2026-04-26 18:02 | 50.33870 | -0.21050 | 27262 ft | 400 kts | 149° |
| 2026-04-26 18:02 | 50.32334 | -0.19448 | 27260 ft | 400 kts | 149° |
| 2026-04-26 18:02 | 50.29235 | -0.16220 | 27260 ft | 400 kts | 149° |
| 2026-04-26 18:02 | 50.26916 | -0.13807 | 27260 ft | 400 kts | 149° |
| 2026-04-26 18:03 | 50.24599 | -0.11399 | 27260 ft | 400 kts | 149° |
| 2026-04-26 18:03 | 50.22279 | -0.08990 | 27257 ft | 400 kts | 149° |
| 2026-04-26 18:03 | 50.19888 | -0.06809 | 27247 ft | 396 kts | 159° |
| 2026-04-26 18:03 | 50.17357 | -0.05100 | 27260 ft | 397 kts | 159° |
| 2026-04-26 18:04 | 50.14831 | -0.03350 | 27251 ft | 397 kts | 159° |
| 2026-04-26 18:04 | 50.12302 | -0.01595 | 27256 ft | 397 kts | 159° |
| 2026-04-26 18:04 | 50.09770 | 0.00090 | 27247 ft | 393 kts | 165° |
| 2026-04-26 18:05 | 50.04529 | 0.02167 | 27241 ft | 388 kts | 169° |
| 2026-04-26 18:05 | 50.01910 | 0.03197 | 27252 ft | 388 kts | 169° |
| 2026-04-26 18:05 | 49.99289 | 0.04229 | 27251 ft | 388 kts | 169° |
| 2026-04-26 18:05 | 49.96669 | 0.05259 | 27236 ft | 388 kts | 169° |
| 2026-04-26 18:06 | 49.94053 | 0.06288 | 27249 ft | 389 kts | 169° |
| 2026-04-26 18:06 | 49.91428 | 0.07318 | 27254 ft | 389 kts | 169° |
| 2026-04-26 18:06 | 49.88806 | 0.08346 | 27250 ft | 389 kts | 169° |
| 2026-04-26 18:06 | 49.86183 | 0.09373 | 27247 ft | 389 kts | 169° |
| 2026-04-26 18:07 | 49.83566 | 0.10398 | 27247 ft | 389 kts | 169° |
| 2026-04-26 18:07 | 49.80943 | 0.11423 | 27245 ft | 389 kts | 169° |
| 2026-04-26 18:07 | 49.78322 | 0.12446 | 27242 ft | 389 kts | 169° |
| 2026-04-26 18:07 | 49.76581 | 0.13125 | 27242 ft | 389 kts | 169° |
| 2026-04-26 18:08 | 49.73076 | 0.14491 | 27238 ft | 388 kts | 169° |
| 2026-04-26 18:08 | 49.70457 | 0.15510 | 27237 ft | 388 kts | 169° |
| 2026-04-26 18:08 | 49.67841 | 0.16546 | 27246 ft | 388 kts | 168° |
| 2026-04-26 18:08 | 49.65228 | 0.17605 | 27238 ft | 388 kts | 168° |
| 2026-04-26 18:09 | 49.62613 | 0.18659 | 27238 ft | 388 kts | 168° |
| 2026-04-26 18:09 | 49.59999 | 0.19711 | 27238 ft | 388 kts | 168° |
| 2026-04-26 18:09 | 49.57385 | 0.20762 | 27234 ft | 388 kts | 168° |
| 2026-04-26 18:09 | 49.54767 | 0.21813 | 27243 ft | 388 kts | 168° |
| 2026-04-26 18:10 | 49.52150 | 0.22863 | 27228 ft | 388 kts | 168° |
| 2026-04-26 18:10 | 49.49539 | 0.23909 | 27234 ft | 388 kts | 168° |
| 2026-04-26 18:10 | 49.46930 | 0.24953 | 27237 ft | 388 kts | 168° |
| 2026-04-26 18:10 | 49.44315 | 0.25998 | 27237 ft | 388 kts | 168° |
| 2026-04-26 18:11 | 49.41705 | 0.27041 | 27237 ft | 388 kts | 168° |
| 2026-04-26 18:11 | 49.39097 | 0.28081 | 27240 ft | 388 kts | 168° |
| 2026-04-26 18:11 | 49.36487 | 0.29121 | 27237 ft | 387 kts | 168° |
| 2026-04-26 18:11 | 49.33879 | 0.30159 | 27239 ft | 387 kts | 168° |
| 2026-04-26 18:12 | 49.31269 | 0.31209 | 27238 ft | 388 kts | 167° |
| 2026-04-26 18:12 | 49.28702 | 0.32301 | 27234 ft | 388 kts | 167° |
| 2026-04-26 18:12 | 49.26067 | 0.33415 | 27235 ft | 388 kts | 167° |
| 2026-04-26 18:12 | 49.23498 | 0.34498 | 27235 ft | 388 kts | 167° |
| 2026-04-26 18:13 | 49.20897 | 0.35592 | 27232 ft | 388 kts | 167° |
| 2026-04-26 18:13 | 49.18295 | 0.36685 | 27232 ft | 388 kts | 167° |
| 2026-04-26 18:13 | 49.15692 | 0.37778 | 27231 ft | 388 kts | 167° |
| 2026-04-26 18:13 | 49.13937 | 0.38514 | 27229 ft | 388 kts | 167° |
| 2026-04-26 18:14 | 49.10488 | 0.39959 | 27225 ft | 388 kts | 167° |
| 2026-04-26 18:14 | 49.07885 | 0.41048 | 27226 ft | 388 kts | 167° |
| 2026-04-26 18:14 | 49.05283 | 0.42135 | 27221 ft | 388 kts | 167° |
| 2026-04-26 18:14 | 49.02684 | 0.43221 | 27225 ft | 388 kts | 167° |
| 2026-04-26 18:15 | 49.00075 | 0.44309 | 27224 ft | 388 kts | 167° |
| 2026-04-26 18:15 | 48.97472 | 0.45393 | 27224 ft | 388 kts | 167° |
| 2026-04-26 18:15 | 48.94865 | 0.46478 | 27224 ft | 389 kts | 167° |
| 2026-04-26 18:15 | 48.92253 | 0.47564 | 27224 ft | 389 kts | 167° |
| 2026-04-26 18:16 | 48.89649 | 0.48645 | 27221 ft | 388 kts | 167° |
| 2026-04-26 18:16 | 48.84436 | 0.50806 | 27222 ft | 388 kts | 167° |
| 2026-04-26 18:16 | 48.81828 | 0.51886 | 27220 ft | 388 kts | 167° |
| 2026-04-26 18:17 | 48.79219 | 0.52955 | 27221 ft | 388 kts | 168° |
| 2026-04-26 18:17 | 48.76602 | 0.53981 | 27219 ft | 388 kts | 168° |
| 2026-04-26 18:17 | 48.73991 | 0.55005 | 27218 ft | 388 kts | 168° |
| 2026-04-26 18:17 | 48.71377 | 0.56032 | 27220 ft | 388 kts | 168° |
| 2026-04-26 18:18 | 48.68765 | 0.57057 | 27215 ft | 388 kts | 168° |
| 2026-04-26 18:18 | 48.66154 | 0.58082 | 27218 ft | 388 kts | 168° |
| 2026-04-26 18:18 | 48.63539 | 0.59107 | 27208 ft | 389 kts | 168° |
| 2026-04-26 18:18 | 48.60917 | 0.60134 | 27216 ft | 389 kts | 168° |
| 2026-04-26 18:19 | 48.58298 | 0.61159 | 27210 ft | 389 kts | 168° |
| 2026-04-26 18:19 | 48.55679 | 0.62182 | 27208 ft | 389 kts | 168° |
| 2026-04-26 18:19 | 48.53060 | 0.63205 | 27207 ft | 389 kts | 168° |
| 2026-04-26 18:19 | 48.50442 | 0.64272 | 27208 ft | 389 kts | 167° |
| 2026-04-26 18:20 | 48.47827 | 0.65338 | 27208 ft | 389 kts | 167° |
| 2026-04-26 18:20 | 48.45208 | 0.66401 | 27205 ft | 389 kts | 167° |
| 2026-04-26 18:20 | 48.42593 | 0.67462 | 27197 ft | 390 kts | 168° |
| 2026-04-26 18:20 | 48.41747 | 0.67805 | 27199 ft | 390 kts | 168° |
| 2026-04-26 18:21 | 48.37354 | 0.69584 | 27201 ft | 390 kts | 168° |
| 2026-04-26 18:21 | 48.34739 | 0.70641 | 27202 ft | 390 kts | 168° |
| 2026-04-26 18:21 | 48.32120 | 0.71699 | 27203 ft | 390 kts | 168° |
| 2026-04-26 18:21 | 48.29504 | 0.72754 | 27195 ft | 390 kts | 168° |
| 2026-04-26 18:22 | 48.26886 | 0.73809 | 27199 ft | 390 kts | 168° |
| 2026-04-26 18:22 | 48.24267 | 0.74849 | 27199 ft | 389 kts | 168° |
| 2026-04-26 18:22 | 48.21642 | 0.75883 | 27186 ft | 389 kts | 168° |
| 2026-04-26 18:22 | 48.19022 | 0.76915 | 27199 ft | 389 kts | 168° |
| 2026-04-26 18:23 | 48.16406 | 0.77945 | 27187 ft | 389 kts | 168° |
| 2026-04-26 18:23 | 48.13816 | 0.78964 | 27193 ft | 389 kts | 168° |
| 2026-04-26 18:23 | 48.11164 | 0.80006 | 27206 ft | 389 kts | 168° |
| 2026-04-26 18:23 | 48.08542 | 0.81035 | 27197 ft | 389 kts | 168° |
| 2026-04-26 18:24 | 48.05964 | 0.82046 | 27185 ft | 389 kts | 168° |
| 2026-04-26 18:24 | 48.03344 | 0.83072 | 27196 ft | 389 kts | 168° |
| 2026-04-26 18:24 | 48.00726 | 0.84097 | 27173 ft | 389 kts | 168° |
| 2026-04-26 18:24 | 47.98075 | 0.85133 | 27190 ft | 390 kts | 168° |
| 2026-04-26 18:25 | 47.95482 | 0.86146 | 27188 ft | 390 kts | 168° |
| 2026-04-26 18:25 | 47.92865 | 0.87167 | 27193 ft | 390 kts | 168° |
| 2026-04-26 18:25 | 47.90235 | 0.88191 | 27186 ft | 390 kts | 168° |
| 2026-04-26 18:25 | 47.87605 | 0.89215 | 27183 ft | 390 kts | 168° |
| 2026-04-26 18:26 | 47.84979 | 0.90236 | 27186 ft | 390 kts | 168° |
| 2026-04-26 18:26 | 47.82347 | 0.91258 | 27189 ft | 390 kts | 168° |
| 2026-04-26 18:26 | 47.79722 | 0.92276 | 27185 ft | 391 kts | 168° |
| 2026-04-26 18:26 | 47.77091 | 0.93295 | 27188 ft | 390 kts | 168° |
| 2026-04-26 18:27 | 47.74465 | 0.94311 | 27183 ft | 390 kts | 168° |
| 2026-04-26 18:27 | 47.71844 | 0.95324 | 27192 ft | 390 kts | 168° |
| 2026-04-26 18:27 | 47.69229 | 0.96334 | 27190 ft | 389 kts | 168° |
| 2026-04-26 18:27 | 47.67495 | 0.97003 | 27189 ft | 390 kts | 168° |
| 2026-04-26 18:28 | 47.64868 | 0.98016 | 27183 ft | 390 kts | 168° |
| 2026-04-26 18:28 | 47.62241 | 0.99027 | 27188 ft | 390 kts | 168° |
| 2026-04-26 18:28 | 47.59616 | 1.00037 | 27192 ft | 390 kts | 168° |
| 2026-04-26 18:28 | 47.56991 | 1.01047 | 27179 ft | 390 kts | 168° |
| 2026-04-26 18:29 | 47.54367 | 1.02053 | 27185 ft | 390 kts | 168° |
| 2026-04-26 18:29 | 47.51735 | 1.03062 | 27183 ft | 390 kts | 168° |
| 2026-04-26 18:29 | 47.49109 | 1.04069 | 27183 ft | 390 kts | 168° |
| 2026-04-26 18:29 | 47.46479 | 1.05075 | 27183 ft | 390 kts | 168° |
| 2026-04-26 18:30 | 47.43851 | 1.06067 | 27179 ft | 390 kts | 170° |
| 2026-04-26 18:30 | 47.41180 | 1.06412 | 27180 ft | 384 kts | 185° |
| 2026-04-26 18:30 | 47.38498 | 1.06320 | 27173 ft | 385 kts | 183° |
| 2026-04-26 18:30 | 47.35820 | 1.06273 | 27162 ft | 386 kts | 183° |
| 2026-04-26 18:31 | 47.33128 | 1.06214 | 27178 ft | 387 kts | 183° |
| 2026-04-26 18:31 | 47.30441 | 1.06152 | 27177 ft | 387 kts | 183° |
| 2026-04-26 18:31 | 47.27751 | 1.06089 | 27173 ft | 387 kts | 183° |
| 2026-04-26 18:31 | 47.25063 | 1.06027 | 27173 ft | 387 kts | 183° |
| 2026-04-26 18:32 | 47.22372 | 1.05963 | 27173 ft | 387 kts | 183° |
| 2026-04-26 18:32 | 47.19680 | 1.05901 | 27171 ft | 387 kts | 183° |
| 2026-04-26 18:32 | 47.16991 | 1.05838 | 27162 ft | 387 kts | 183° |
| 2026-04-26 18:32 | 47.14312 | 1.05776 | 27093 ft | 381 kts | 183° |
| 2026-04-26 18:33 | 47.11692 | 1.05714 | 26946 ft | 371 kts | 183° |
| 2026-04-26 18:33 | 47.09127 | 1.05654 | 26594 ft | 368 kts | 183° |
| 2026-04-26 18:33 | 47.06580 | 1.05594 | 26216 ft | 365 kts | 183° |
| 2026-04-26 18:33 | 47.04044 | 1.05535 | 25839 ft | 363 kts | 183° |
| 2026-04-26 18:34 | 47.01557 | 1.05447 | 25436 ft | 362 kts | 184° |
| 2026-04-26 18:34 | 46.99010 | 1.05334 | 25034 ft | 361 kts | 184° |
| 2026-04-26 18:34 | 46.96508 | 1.05226 | 24673 ft | 358 kts | 184° |
| 2026-04-26 18:34 | 46.94022 | 1.05122 | 24306 ft | 357 kts | 184° |
| 2026-04-26 18:35 | 46.91581 | 1.05019 | 23946 ft | 355 kts | 184° |
| 2026-04-26 18:35 | 46.89087 | 1.04914 | 23536 ft | 354 kts | 184° |
| 2026-04-26 18:35 | 46.86626 | 1.04810 | 23069 ft | 353 kts | 184° |
| 2026-04-26 18:35 | 46.84214 | 1.04707 | 22711 ft | 350 kts | 184° |
| 2026-04-26 18:36 | 46.81762 | 1.04604 | 22371 ft | 346 kts | 184° |
| 2026-04-26 18:36 | 46.79397 | 1.04504 | 22018 ft | 343 kts | 184° |
| 2026-04-26 18:36 | 46.77018 | 1.04403 | 21662 ft | 340 kts | 184° |
| 2026-04-26 18:36 | 46.74661 | 1.04304 | 21313 ft | 338 kts | 184° |
| 2026-04-26 18:37 | 46.72321 | 1.04205 | 20957 ft | 336 kts | 184° |
| 2026-04-26 18:37 | 46.69993 | 1.04107 | 20612 ft | 333 kts | 184° |
| 2026-04-26 18:37 | 46.67680 | 1.04009 | 20267 ft | 331 kts | 184° |
| 2026-04-26 18:37 | 46.65383 | 1.03913 | 19923 ft | 329 kts | 184° |
| 2026-04-26 18:38 | 46.63100 | 1.03817 | 19584 ft | 328 kts | 184° |
| 2026-04-26 18:38 | 46.60830 | 1.03722 | 19245 ft | 326 kts | 184° |
| 2026-04-26 18:38 | 46.58567 | 1.03626 | 18907 ft | 324 kts | 184° |
| 2026-04-26 18:38 | 46.56317 | 1.03532 | 18570 ft | 323 kts | 183° |
| 2026-04-26 18:39 | 46.54071 | 1.03439 | 18200 ft | 322 kts | 183° |
| 2026-04-26 18:39 | 46.51841 | 1.03353 | 17824 ft | 320 kts | 182° |
| 2026-04-26 18:39 | 46.49609 | 1.03332 | 17433 ft | 319 kts | 181° |
| 2026-04-26 18:39 | 46.47397 | 1.03310 | 17115 ft | 316 kts | 181° |
| 2026-04-26 18:40 | 46.45208 | 1.03287 | 16794 ft | 313 kts | 181° |
| 2026-04-26 18:40 | 46.43035 | 1.03262 | 16470 ft | 311 kts | 181° |
| 2026-04-26 18:40 | 46.40882 | 1.03238 | 16147 ft | 309 kts | 181° |
| 2026-04-26 18:40 | 46.38741 | 1.03212 | 15823 ft | 307 kts | 181° |
| 2026-04-26 18:41 | 46.36615 | 1.03187 | 15499 ft | 305 kts | 181° |
| 2026-04-26 18:41 | 46.34501 | 1.03164 | 15178 ft | 303 kts | 181° |
| 2026-04-26 18:41 | 46.32398 | 1.03140 | 14861 ft | 301 kts | 181° |
| 2026-04-26 18:41 | 46.30309 | 1.03116 | 14553 ft | 300 kts | 180° |
| 2026-04-26 18:42 | 46.28225 | 1.03090 | 14232 ft | 299 kts | 180° |
| 2026-04-26 18:42 | 46.26154 | 1.03067 | 13908 ft | 297 kts | 180° |
| 2026-04-26 18:42 | 46.24086 | 1.03042 | 13551 ft | 296 kts | 180° |
| 2026-04-26 18:42 | 46.22032 | 1.03018 | 13219 ft | 294 kts | 180° |
| 2026-04-26 18:43 | 46.19990 | 1.02994 | 12899 ft | 292 kts | 180° |
| 2026-04-26 18:43 | 46.17993 | 1.02972 | 12599 ft | 290 kts | 180° |
| 2026-04-26 18:43 | 46.15984 | 1.02948 | 12293 ft | 288 kts | 180° |
| 2026-04-26 18:43 | 46.13991 | 1.02925 | 11990 ft | 286 kts | 180° |
| 2026-04-26 18:44 | 46.12010 | 1.02902 | 11683 ft | 284 kts | 180° |
| 2026-04-26 18:44 | 46.10042 | 1.02879 | 11388 ft | 282 kts | 180° |
| 2026-04-26 18:44 | 46.08084 | 1.02857 | 11099 ft | 280 kts | 180° |
| 2026-04-26 18:44 | 46.06138 | 1.02834 | 10791 ft | 279 kts | 180° |
| 2026-04-26 18:45 | 46.04199 | 1.02812 | 10495 ft | 278 kts | 180° |
| 2026-04-26 18:45 | 46.02272 | 1.02790 | 10201 ft | 277 kts | 180° |
| 2026-04-26 18:45 | 46.00352 | 1.02768 | 9884 ft | 276 kts | 180° |
| 2026-04-26 18:45 | 45.98440 | 1.02745 | 9567 ft | 274 kts | 180° |
| 2026-04-26 18:46 | 45.96533 | 1.02723 | 9258 ft | 273 kts | 181° |
| 2026-04-26 18:46 | 45.94671 | 1.02316 | 8922 ft | 271 kts | 198° |
| 2026-04-26 18:46 | 45.92894 | 1.01447 | 8636 ft | 269 kts | 199° |
| 2026-04-26 18:46 | 45.91128 | 1.00593 | 8357 ft | 267 kts | 199° |
| 2026-04-26 18:47 | 45.89377 | 0.99748 | 8075 ft | 265 kts | 199° |
| 2026-04-26 18:47 | 45.87638 | 0.98911 | 7796 ft | 263 kts | 199° |
| 2026-04-26 18:47 | 45.85907 | 0.98080 | 7496 ft | 261 kts | 199° |
| 2026-04-26 18:47 | 45.84191 | 0.97255 | 7233 ft | 260 kts | 199° |
| 2026-04-26 18:48 | 45.82478 | 0.96433 | 6954 ft | 259 kts | 199° |
| 2026-04-26 18:48 | 45.80777 | 0.95618 | 6677 ft | 257 kts | 199° |
| 2026-04-26 18:48 | 45.79089 | 0.94809 | 6442 ft | 253 kts | 199° |
| 2026-04-26 18:48 | 45.77446 | 0.94021 | 6302 ft | 245 kts | 199° |
| 2026-04-26 18:49 | 45.75851 | 0.93256 | 6152 ft | 237 kts | 198° |
| 2026-04-26 18:49 | 45.74307 | 0.92517 | 5972 ft | 232 kts | 198° |
| 2026-04-26 18:49 | 45.72768 | 0.91941 | 5734 ft | 227 kts | 182° |
| 2026-04-26 18:49 | 45.71244 | 0.92382 | 5454 ft | 225 kts | 151° |
| 2026-04-26 18:50 | 45.70116 | 0.93807 | 5290 ft | 211 kts | 121° |
| 2026-04-26 18:50 | 45.69572 | 0.95668 | 5128 ft | 199 kts | 104° |
| 2026-04-26 18:50 | 45.69196 | 0.97535 | 4932 ft | 191 kts | 102° |
| 2026-04-26 18:50 | 45.68864 | 0.99334 | 4740 ft | 182 kts | 97° |
| 2026-04-26 18:51 | 45.68988 | 1.01041 | 4552 ft | 169 kts | 63° |
| 2026-04-26 18:51 | 45.69704 | 1.02311 | 4435 ft | 165 kts | 38° |
| 2026-04-26 18:51 | 45.70630 | 1.03301 | 4385 ft | 166 kts | 36° |
| 2026-04-26 18:51 | 45.71571 | 1.04263 | 4251 ft | 166 kts | 35° |
| 2026-04-26 18:52 | 45.72524 | 1.05211 | 4048 ft | 167 kts | 34° |
| 2026-04-26 18:52 | 45.73478 | 1.06143 | 3906 ft | 166 kts | 33° |
| 2026-04-26 18:52 | 45.74431 | 1.07062 | 3794 ft | 165 kts | 33° |
| 2026-04-26 18:52 | 45.75371 | 1.07960 | 3644 ft | 165 kts | 33° |
| 2026-04-26 18:53 | 45.76336 | 1.08875 | 3429 ft | 163 kts | 33° |
| 2026-04-26 18:53 | 45.77281 | 1.09768 | 3199 ft | 160 kts | 33° |
| 2026-04-26 18:53 | 45.78166 | 1.10603 | 3037 ft | 146 kts | 33° |
| 2026-04-26 18:53 | 45.78996 | 1.11383 | 2820 ft | 143 kts | 32° |
| 2026-04-26 18:54 | 45.79837 | 1.12171 | 2612 ft | 142 kts | 33° |
| 2026-04-26 18:54 | 45.80646 | 1.12934 | 2384 ft | 140 kts | 34° |
| 2026-04-26 18:54 | 45.81467 | 1.13703 | 2171 ft | 140 kts | 33° |
| 2026-04-26 18:54 | 45.82282 | 1.14467 | 1993 ft | 140 kts | 32° |
| 2026-04-26 18:55 | 45.83096 | 1.15230 | 1793 ft | 140 kts | 31° |
| 2026-04-26 18:55 | 45.83909 | 1.15994 | 1609 ft | 141 kts | 31° |
| 2026-04-26 18:55 | 45.84730 | 1.16790 | 1436 ft | 143 kts | 32° |
| 2026-04-26 18:55 | 45.85551 | 1.17540 | 1306 ft | 133 kts | 30° |
| 2026-04-26 18:56 | 45.86148 | 1.18091 | 1311 ft | 67 kts | 32° |
| 2026-04-26 18:56 | 45.86360 | 1.18292 | 1313 ft | 6 kts | 33° |
| 2026-04-26 18:56 | 45.86373 | 1.18304 | 1313 ft | 0 kts | 32° |
| 2026-04-26 18:56 | 45.86147 | 1.17717 | 1310 ft | 0 kts | 256° |